createdAt,value
2022-08-29T00:01:06.912Z,98143.06
2022-08-29T00:03:40.915Z,98136.94
2022-08-29T00:06:14.194Z,98132.53
2022-08-29T00:08:48.639Z,98139.31
2022-08-29T00:11:22.389Z,98140.16
2022-08-29T00:13:55.476Z,98139.09
2022-08-29T00:16:28.617Z,98140.03
2022-08-29T00:19:01.783Z,98134.69
2022-08-29T00:21:35.014Z,98140.72
2022-08-29T00:24:09.494Z,98136.38
2022-08-29T00:26:42.579Z,98138.09
2022-08-29T00:29:15.660Z,98141.50
2022-08-29T00:31:48.758Z,98139.81
2022-08-29T00:34:22.140Z,98137.34
2022-08-29T00:36:55.217Z,98136.06
2022-08-29T00:39:29.796Z,98137.84
2022-08-29T00:42:06.880Z,98141.06
2022-08-29T00:44:39.975Z,98136.59
2022-08-29T00:47:18.443Z,98132.03
2022-08-29T00:49:57.173Z,98141.59
2022-08-29T00:52:35.432Z,98145.91
2022-08-29T00:55:15.947Z,98140.72
2022-08-29T00:57:56.162Z,98138.31
2022-08-29T01:00:29.785Z,98141.50
2022-08-29T01:03:04.618Z,98152.78
2022-08-29T01:05:38.134Z,98151.03
2022-08-29T01:08:11.265Z,98157.97
2022-08-29T01:11:03.773Z,98145.91
2022-08-29T01:13:42.917Z,98143.41
2022-08-29T01:16:18.452Z,98150.31
2022-08-29T01:18:58.371Z,98151.94
2022-08-29T01:21:39.627Z,98151.03
2022-08-29T01:24:27.452Z,98146.63
2022-08-29T01:27:00.591Z,98154.25
2022-08-29T01:29:33.892Z,98155.13
2022-08-29T01:32:07.647Z,98148.06
2022-08-29T01:34:41.233Z,98157.38
2022-08-29T01:37:17.037Z,98146.94
2022-08-29T01:39:51.484Z,98153.69
2022-08-29T01:42:25.900Z,98151.38
2022-08-29T01:45:02.856Z,98154.59
2022-08-29T01:47:36.795Z,98154.59
2022-08-29T01:50:14.393Z,98150.16
2022-08-29T01:52:47.603Z,98145.69
2022-08-29T01:55:22.202Z,98150.72
2022-08-29T01:57:55.335Z,98148.81
2022-08-29T02:00:28.938Z,98148.81
2022-08-29T02:03:03.757Z,98143.66
2022-08-29T02:05:36.811Z,98137.50
2022-08-29T02:08:09.839Z,98140.94
2022-08-29T02:10:44.298Z,98136.66
2022-08-29T02:13:17.350Z,98139.47
2022-08-29T02:15:50.430Z,98139.09
2022-08-29T02:18:23.596Z,98141.66
2022-08-29T02:20:56.691Z,98145.72
2022-08-29T02:23:31.356Z,98144.88
2022-08-29T02:26:06.394Z,98139.47
2022-08-29T02:28:41.453Z,98144.50
2022-08-29T02:31:16.448Z,98149.44
2022-08-29T02:33:50.063Z,98149.59
2022-08-29T02:36:24.043Z,98159.97
2022-08-29T02:38:59.158Z,98151.28
2022-08-29T02:41:33.971Z,98150.41
2022-08-29T02:44:07.321Z,98144.31
2022-08-29T02:46:40.548Z,98145.22
2022-08-29T02:49:14.163Z,98154.69
2022-08-29T02:51:47.264Z,98140.06
2022-08-29T02:54:20.299Z,98153.47
2022-08-29T02:56:54.719Z,98150.50
2022-08-29T02:59:28.425Z,98151.34
2022-08-29T03:02:01.756Z,98149.69
2022-08-29T03:04:34.907Z,98141.06
2022-08-29T03:07:07.962Z,98145.28
2022-08-29T03:09:41.083Z,98149.44
2022-08-29T03:12:15.465Z,98147.81
2022-08-29T03:14:48.527Z,98149.31
2022-08-29T03:17:21.565Z,98148.34
2022-08-29T03:19:54.661Z,98144.75
2022-08-29T03:22:28.419Z,98142.41
2022-08-29T03:25:02.918Z,98135.22
2022-08-29T03:27:37.569Z,98137.72
2022-08-29T03:30:14.991Z,98136.25
2022-08-29T03:32:48.355Z,98142.53
2022-08-29T03:35:22.503Z,98138.13
2022-08-29T03:37:56.995Z,98147.59
2022-08-29T03:40:30.157Z,98146.53
2022-08-29T03:43:04.671Z,98149.88
2022-08-29T03:45:38.369Z,98144.50
2022-08-29T03:48:11.513Z,98141.44
2022-08-29T03:50:44.715Z,98150.13
2022-08-29T03:53:18.292Z,98151.47
2022-08-29T03:55:53.132Z,98155.75
2022-08-29T03:58:27.558Z,98162.72
2022-08-29T04:01:00.937Z,98156.53
2022-08-29T04:03:34.183Z,98153.31
2022-08-29T04:06:07.867Z,98151.25
2022-08-29T04:08:40.957Z,98160.41
2022-08-29T04:11:15.287Z,98160.56
2022-08-29T04:13:50.073Z,98163.25
2022-08-29T04:16:30.837Z,98165.09
2022-08-29T04:19:04.338Z,98159.91
2022-08-29T04:21:41.952Z,98165.84
2022-08-29T04:24:15.229Z,98174.38
2022-08-29T04:26:48.399Z,98169.38
2022-08-29T04:29:22.797Z,98178.03
2022-08-29T04:31:55.900Z,98180.94
2022-08-29T04:34:28.958Z,98179.78
2022-08-29T04:37:02.033Z,98183.34
2022-08-29T04:39:35.701Z,98182.22
2022-08-29T04:42:08.875Z,98182.38
2022-08-29T04:44:43.365Z,98184.94
2022-08-29T04:47:16.712Z,98178.69
2022-08-29T04:49:55.400Z,98179.44
2022-08-29T04:52:29.433Z,98180.31
2022-08-29T04:55:02.841Z,98188.97
2022-08-29T04:57:36.270Z,98179.34
2022-08-29T05:00:16.449Z,98181.97
2022-08-29T05:02:49.853Z,98179.34
2022-08-29T05:05:23.085Z,98183.69
2022-08-29T05:07:56.157Z,98183.03
2022-08-29T05:10:29.208Z,98182.06
2022-08-29T05:13:02.315Z,98180.44
2022-08-29T05:15:39.237Z,98183.31
2022-08-29T05:18:13.318Z,98183.06
2022-08-29T05:20:49.541Z,98180.94
2022-08-29T05:23:22.625Z,98184.81
2022-08-29T05:25:58.321Z,98185.41
2022-08-29T05:28:34.529Z,98187.47
2022-08-29T05:31:13.763Z,98179.34
2022-08-29T05:33:47.187Z,98185.94
2022-08-29T05:36:20.278Z,98178.63
2022-08-29T05:38:53.363Z,98180.63
2022-08-29T05:41:26.790Z,98177.59
2022-08-29T05:43:59.987Z,98179.53
2022-08-29T05:46:34.467Z,98187.53
2022-08-29T05:49:07.611Z,98189.34
2022-08-29T05:51:40.740Z,98193.78
2022-08-29T05:54:13.863Z,98193.44
2022-08-29T05:56:47.154Z,98191.31
2022-08-29T05:59:20.758Z,98194.94
2022-08-29T06:01:55.251Z,98193.88
2022-08-29T06:04:28.753Z,98199.91
2022-08-29T06:07:02.012Z,98199.75
2022-08-29T06:09:36.368Z,98200.38
2022-08-29T06:12:11.315Z,98199.09
2022-08-29T06:14:50.687Z,98201.81
2022-08-29T06:17:25.370Z,98211.09
2022-08-29T06:19:58.565Z,98195.00
2022-08-29T06:22:31.629Z,98202.03
2022-08-29T06:25:27.986Z,98206.88
2022-08-29T06:27:59.813Z,98208.13
2022-08-29T06:30:34.378Z,98207.06
2022-08-29T06:33:10.066Z,98204.56
2022-08-29T06:35:43.129Z,98204.19
2022-08-29T06:38:16.647Z,98211.31
2022-08-29T06:40:50.001Z,98214.81
2022-08-29T06:43:23.811Z,98213.28
2022-08-29T06:45:56.949Z,98205.97
2022-08-29T06:48:31.793Z,98206.25
2022-08-29T06:51:05.570Z,98217.97
2022-08-29T06:53:38.874Z,98218.41
2022-08-29T06:56:12.209Z,98219.41
2022-08-29T06:58:45.317Z,98227.50
2022-08-29T07:01:21.255Z,98230.47
2022-08-29T07:03:57.776Z,98219.53
2022-08-29T07:06:32.102Z,98226.53
2022-08-29T07:09:06.691Z,98223.22
2022-08-29T07:11:42.278Z,98221.59
2022-08-29T07:14:15.614Z,98225.28
2022-08-29T07:16:48.862Z,98220.03
2022-08-29T07:19:23.370Z,98224.44
2022-08-29T07:21:58.954Z,98219.03
2022-08-29T07:24:32.521Z,98217.63
2022-08-29T07:27:05.780Z,98217.81
2022-08-29T07:29:39.713Z,98220.59
2022-08-29T07:32:12.789Z,98214.50
2022-08-29T07:34:47.241Z,98231.94
2022-08-29T07:37:20.330Z,98223.13
2022-08-29T07:39:53.715Z,98217.88
2022-08-29T07:42:27.889Z,98210.88
2022-08-29T07:45:01.113Z,98221.34
2022-08-29T07:47:34.671Z,98219.56
2022-08-29T07:50:12.599Z,98217.94
2022-08-29T07:52:47.707Z,98219.66
2022-08-29T07:55:22.880Z,98224.88
2022-08-29T07:57:56.043Z,98223.09
2022-08-29T08:00:29.233Z,98209.19
2022-08-29T08:03:02.415Z,98215.38
2022-08-29T08:05:37.565Z,98210.13
2022-08-29T08:08:15.215Z,98212.75
2022-08-29T08:10:51.997Z,98213.66
2022-08-29T08:13:25.914Z,98210.16
2022-08-29T08:15:59.077Z,98220.66
2022-08-29T08:18:32.199Z,98216.28
2022-08-29T08:21:07.268Z,98223.25
2022-08-29T08:23:41.230Z,98217.16
2022-08-29T08:26:15.533Z,98225.88
2022-08-29T08:28:49.239Z,98225.03
2022-08-29T08:31:22.818Z,98224.97
2022-08-29T08:33:56.243Z,98222.34
2022-08-29T08:36:34.530Z,98224.13
2022-08-29T08:39:09.798Z,98219.72
2022-08-29T08:41:53.607Z,98224.94
2022-08-29T08:45:04.813Z,98224.91
2022-08-29T08:47:44.592Z,98227.53
2022-08-29T08:50:45.099Z,98226.56
2022-08-29T08:53:27.516Z,98227.38
2022-08-29T08:56:07.222Z,98222.88
2022-08-29T08:58:53.338Z,98221.94
2022-08-29T09:01:33.756Z,98222.69
2022-08-29T09:04:39.812Z,98221.09
2022-08-29T09:07:39.786Z,98220.16
2022-08-29T09:10:32.170Z,98224.59
2022-08-29T09:13:19.497Z,98220.13
2022-08-29T09:16:00.971Z,98215.66
2022-08-29T09:18:40.709Z,98208.00
2022-08-29T09:22:32.713Z,98208.06
2022-08-29T09:25:10.589Z,98208.06
2022-08-29T09:27:49.822Z,98213.16
2022-08-29T09:30:28.830Z,98216.53
2022-08-29T09:33:09.285Z,98214.75
2022-08-29T09:35:47.190Z,98210.44
2022-08-29T09:38:25.239Z,98213.09
2022-08-29T09:41:03.475Z,98219.34
2022-08-29T09:43:52.843Z,98211.44
2022-08-29T09:46:28.483Z,98204.25
2022-08-29T09:49:16.547Z,98203.19
2022-08-29T09:51:52.814Z,98212.69
2022-08-29T09:54:32.474Z,98210.94
2022-08-29T09:57:15.480Z,98205.56
2022-08-29T10:00:12.220Z,98207.16
2022-08-29T10:02:49.851Z,98207.25
2022-08-29T10:05:44.653Z,98209.25
2022-08-29T10:08:35.529Z,98209.19
2022-08-29T10:11:23.952Z,98211.91
2022-08-29T10:14:04.162Z,98201.69
2022-08-29T10:16:48.430Z,98208.66
2022-08-29T10:19:33.160Z,98205.03
2022-08-29T10:25:10.379Z,98200.50
2022-08-29T10:27:55.675Z,98211.88
2022-08-29T10:30:38.422Z,98207.94
2022-08-29T10:33:26.722Z,98209.47
2022-08-29T10:36:08.342Z,98209.19
2022-08-29T10:38:49.941Z,98208.28
2022-08-29T10:41:36.100Z,98209.28
2022-08-29T10:44:27.471Z,98204.78
2022-08-29T10:47:30.817Z,98206.47
2022-08-29T10:50:46.353Z,98210.13
2022-08-29T10:53:26.817Z,98204.81
2022-08-29T10:56:07.040Z,98200.41
2022-08-29T10:58:57.869Z,98197.72
2022-08-29T11:01:38.061Z,98198.50
2022-08-29T11:04:19.566Z,98195.09
2022-08-29T11:07:04.660Z,98194.38
2022-08-29T11:09:45.004Z,98189.06
2022-08-29T11:12:34.823Z,98196.97
2022-08-29T11:15:19.323Z,98195.31
2022-08-29T11:18:03.653Z,98191.66
2022-08-29T11:20:46.224Z,98189.94
2022-08-29T11:23:32.995Z,98185.69
2022-08-29T11:26:21.279Z,98185.63
2022-08-29T11:29:04.135Z,98179.50
2022-08-29T11:31:52.359Z,98183.00
2022-08-29T11:34:46.478Z,98176.84
2022-08-29T11:38:19.817Z,98178.78
2022-08-29T11:41:30.813Z,98173.44
2022-08-29T11:44:23.371Z,98167.28
2022-08-29T11:46:59.290Z,98165.47
2022-08-29T11:49:44.215Z,98164.72
2022-08-29T11:52:31.433Z,98170.84
2022-08-29T11:55:33.218Z,98168.06
2022-08-29T11:58:46.961Z,98167.25
2022-08-29T12:02:00.817Z,98165.56
2022-08-29T12:04:58.767Z,98157.78
2022-08-29T12:07:41.978Z,98158.53
2022-08-29T12:10:30.639Z,98155.03
2022-08-29T12:13:08.955Z,98151.47
2022-08-29T12:16:10.845Z,98151.47
2022-08-29T12:18:52.682Z,98154.88
2022-08-29T12:21:51.900Z,98157.34
2022-08-29T12:24:57.179Z,98154.78
2022-08-29T12:28:03.149Z,98158.09
2022-08-29T12:30:43.638Z,98152.09
2022-08-29T12:33:36.845Z,98146.72
2022-08-29T12:36:29.029Z,98151.25
2022-08-29T12:39:23.731Z,98143.44
2022-08-29T12:42:16.038Z,98138.81
2022-08-29T12:45:00.653Z,98142.28
2022-08-29T12:47:42.878Z,98137.19
2022-08-29T12:50:23.711Z,98134.72
2022-08-29T12:53:04.377Z,98124.19
2022-08-29T12:55:43.467Z,98125.94
2022-08-29T12:58:36.130Z,98120.06
2022-08-29T13:01:23.580Z,98115.72
2022-08-29T13:04:03.620Z,98108.81
2022-08-29T13:06:49.876Z,98118.72
2022-08-29T13:09:32.698Z,98109.25
2022-08-29T13:12:13.567Z,98106.72
2022-08-29T13:15:00.155Z,98102.41
2022-08-29T13:17:36.795Z,98104.22
2022-08-29T13:20:45.890Z,98105.16
2022-08-29T13:23:26.302Z,98101.66
2022-08-29T13:26:03.942Z,98104.38
2022-08-29T13:28:44.004Z,98103.47
2022-08-29T13:31:30.139Z,98095.56
2022-08-29T13:34:20.791Z,98091.09
2022-08-29T13:37:29.930Z,98091.06
2022-08-29T13:40:41.158Z,98082.31
2022-08-29T13:43:36.069Z,98091.88
2022-08-29T13:46:19.493Z,98089.16
2022-08-29T13:49:00.651Z,98079.53
2022-08-29T13:51:33.914Z,98080.44
2022-08-29T13:54:07.144Z,98079.59
2022-08-29T13:56:42.684Z,98074.25
2022-08-29T13:59:25.867Z,98072.50
2022-08-29T14:02:09.392Z,98068.91
2022-08-29T14:04:47.927Z,98074.09
2022-08-29T14:07:26.917Z,98073.25
2022-08-29T14:10:01.172Z,98075.75
2022-08-29T14:12:35.618Z,98066.19
2022-08-29T14:15:12.396Z,98074.94
2022-08-29T14:17:48.404Z,98077.53
2022-08-29T14:20:21.879Z,98071.53
2022-08-29T14:22:55.103Z,98069.69
2022-08-29T14:25:28.216Z,98073.13
2022-08-29T14:28:02.723Z,98065.22
2022-08-29T14:30:35.845Z,98064.41
2022-08-29T14:33:09.140Z,98053.06
2022-08-29T14:35:42.489Z,98057.34
2022-08-29T14:38:16.761Z,98052.91
2022-08-29T14:40:50.012Z,98056.28
2022-08-29T14:43:24.694Z,98053.56
2022-08-29T14:45:57.977Z,98059.53
2022-08-29T14:48:31.073Z,98052.28
2022-08-29T14:51:04.569Z,98054.03
2022-08-29T14:53:53.155Z,98050.38
2022-08-29T14:56:47.572Z,98051.34
2022-08-29T14:59:25.492Z,98048.66
2022-08-29T15:01:58.761Z,98043.66
2022-08-29T15:04:36.593Z,98039.31
2022-08-29T15:07:14.142Z,98039.84
2022-08-29T15:09:47.458Z,98046.03
2022-08-29T15:12:21.643Z,98045.94
2022-08-29T15:14:56.233Z,98042.78
2022-08-29T15:17:29.400Z,98043.81
2022-08-29T15:22:56.190Z,98044.75
2022-08-29T15:25:29.413Z,98046.66
2022-08-29T15:28:02.711Z,98031.88
2022-08-29T15:30:37.169Z,98036.28
2022-08-29T15:33:10.311Z,98031.94
2022-08-29T15:35:43.592Z,98035.41
2022-08-29T15:38:16.948Z,98031.16
2022-08-29T15:40:50.255Z,98035.63
2022-08-29T15:43:23.407Z,98033.84
2022-08-29T15:45:59.863Z,98034.88
2022-08-29T15:48:33.506Z,98026.19
2022-08-29T15:51:06.730Z,98021.03
2022-08-29T15:53:40.714Z,98023.75
2022-08-29T15:56:13.909Z,98023.72
2022-08-29T15:58:48.286Z,98019.34
2022-08-29T16:01:22.800Z,98019.47
2022-08-29T16:03:55.987Z,98018.59
2022-08-29T16:06:29.091Z,98020.31
2022-08-29T16:09:03.072Z,98005.50
2022-08-29T16:11:52.994Z,98006.44
2022-08-29T16:14:58.144Z,98010.81
2022-08-29T16:17:20.978Z,98009.09
2022-08-29T16:19:54.841Z,98005.59
2022-08-29T16:22:28.713Z,98016.13
2022-08-29T16:25:01.837Z,98013.50
2022-08-29T16:27:35.367Z,98007.41
2022-08-29T16:30:10.955Z,98005.69
2022-08-29T16:32:45.504Z,98011.81
2022-08-29T16:35:20.668Z,98010.94
2022-08-29T16:38:02.519Z,98006.56
2022-08-29T16:40:36.020Z,98009.19
2022-08-29T16:43:09.194Z,98008.34
2022-08-29T16:45:42.345Z,97998.78
2022-08-29T16:48:17.943Z,98011.00
2022-08-29T16:50:51.559Z,98002.28
2022-08-29T16:53:24.863Z,97995.31
2022-08-29T16:55:58.229Z,97998.78
2022-08-29T16:58:49.227Z,98000.53
2022-08-29T17:01:23.023Z,97991.78
2022-08-29T17:03:57.897Z,97997.03
2022-08-29T17:06:31.794Z,97993.56
2022-08-29T17:09:08.542Z,97993.56
2022-08-29T17:11:41.849Z,97989.19
2022-08-29T17:14:15.466Z,97989.19
2022-08-29T17:16:52.061Z,97990.91
2022-08-29T17:19:27.972Z,97976.97
2022-08-29T17:22:04.032Z,97985.69
2022-08-29T17:24:37.069Z,97990.06
2022-08-29T17:27:11.145Z,97983.97
2022-08-29T17:29:47.159Z,97994.47
2022-08-29T17:32:20.273Z,97987.47
2022-08-29T17:34:54.726Z,97995.31
2022-08-29T17:37:27.916Z,98003.16
2022-08-29T17:40:13.233Z,98005.78
2022-08-29T17:42:49.295Z,98003.19
2022-08-29T17:45:22.750Z,98003.16
2022-08-29T17:47:56.594Z,98007.50
2022-08-29T17:50:31.785Z,98005.75
2022-08-29T17:53:05.675Z,98004.84
2022-08-29T17:55:38.978Z,98000.44
2022-08-29T17:58:12.142Z,98008.25
2022-08-29T18:00:45.571Z,98010.88
2022-08-29T18:03:19.484Z,98015.16
2022-08-29T18:05:53.910Z,98023.88
2022-08-29T18:08:27.002Z,98015.06
2022-08-29T18:11:00.143Z,98021.97
2022-08-29T18:13:33.889Z,98024.53
2022-08-29T18:16:07.446Z,98028.81
2022-08-29T18:18:42.019Z,98034.84
2022-08-29T18:21:18.595Z,98034.72
2022-08-29T18:23:51.888Z,98030.31
2022-08-29T18:26:26.245Z,98036.31
2022-08-29T18:28:59.449Z,98045.78
2022-08-29T18:31:32.802Z,98043.09
2022-08-29T18:34:07.242Z,98049.91
2022-08-29T18:36:44.919Z,98052.38
2022-08-29T18:39:18.975Z,98055.81
2022-08-29T18:41:53.103Z,98060.88
2022-08-29T18:44:26.339Z,98058.97
2022-08-29T18:46:59.456Z,98065.84
2022-08-29T18:49:50.316Z,98079.59
2022-08-29T18:52:26.955Z,98081.28
2022-08-29T18:55:00.105Z,98080.38
2022-08-29T18:57:33.671Z,98088.91
2022-08-29T19:00:10.458Z,98087.03
2022-08-29T19:02:43.799Z,98089.56
2022-08-29T19:05:18.418Z,98097.91
2022-08-29T19:07:53.362Z,98093.44
2022-08-29T19:10:29.062Z,98096.03
2022-08-29T19:13:02.748Z,98099.38
2022-08-29T19:15:41.322Z,98093.13
2022-08-29T19:18:16.041Z,98093.78
2022-08-29T19:21:12.162Z,98087.72
2022-08-29T19:23:52.191Z,98097.13
2022-08-29T19:26:30.799Z,98090.09
2022-08-29T19:29:12.404Z,98095.03
2022-08-29T19:31:46.341Z,98101.84
2022-08-29T19:34:19.447Z,98105.91
2022-08-29T19:36:52.622Z,98103.13
2022-08-29T19:39:27.288Z,98097.81
2022-08-29T19:42:00.796Z,98103.78
2022-08-29T19:44:34.368Z,98096.72
2022-08-29T19:47:07.804Z,98107.94
2022-08-29T19:49:45.404Z,98113.03
2022-08-29T19:52:18.938Z,98099.03
2022-08-29T19:54:56.036Z,98111.97
2022-08-29T19:57:29.141Z,98107.66
2022-08-29T20:00:03.178Z,98119.41
2022-08-29T20:02:37.155Z,98114.16
2022-08-29T20:05:12.328Z,98118.22
2022-08-29T20:07:46.618Z,98114.00
2022-08-29T20:10:24.982Z,98119.19
2022-08-29T20:12:59.073Z,98119.06
2022-08-29T20:15:32.345Z,98119.88
2022-08-29T20:18:06.157Z,98130.00
2022-08-29T20:20:39.289Z,98133.59
2022-08-29T20:23:13.127Z,98134.91
2022-08-29T20:25:47.712Z,98129.75
2022-08-29T20:28:20.815Z,98130.59
2022-08-29T20:30:54.456Z,98135.78
2022-08-29T20:33:27.753Z,98139.19
2022-08-29T20:36:20.335Z,98135.31
2022-08-29T20:38:55.287Z,98134.19
2022-08-29T20:41:29.761Z,98135.03
2022-08-29T20:44:07.065Z,98135.03
2022-08-29T20:46:42.072Z,98140.22
2022-08-29T20:49:20.035Z,98146.91
2022-08-29T20:51:53.771Z,98154.63
2022-08-29T20:54:26.931Z,98147.59
2022-08-29T20:57:01.655Z,98144.19
2022-08-29T20:59:39.255Z,98145.84
2022-08-29T21:02:13.915Z,98142.19
2022-08-29T21:05:04.583Z,98137.91
2022-08-29T21:07:37.663Z,98143.19
2022-08-29T21:10:11.104Z,98143.09
2022-08-29T21:12:45.519Z,98147.38
2022-08-29T21:15:18.711Z,98143.78
2022-08-29T21:17:51.812Z,98149.84
2022-08-29T21:20:24.974Z,98147.13
2022-08-29T21:23:00.666Z,98149.75
2022-08-29T21:25:33.985Z,98154.94
2022-08-29T21:28:09.522Z,98150.56
2022-08-29T21:30:45.611Z,98150.63
2022-08-29T21:33:19.578Z,98147.19
2022-08-29T21:35:52.675Z,98155.91
2022-08-29T21:38:25.722Z,98155.09
2022-08-29T21:40:59.016Z,98160.28
2022-08-29T21:43:33.446Z,98167.06
2022-08-29T21:46:16.103Z,98166.84
2022-08-29T21:48:56.374Z,98170.28
2022-08-29T21:51:31.708Z,98168.41
2022-08-29T21:54:10.276Z,98166.66
2022-08-29T21:56:46.523Z,98167.53
2022-08-29T21:59:21.879Z,98164.06
2022-08-29T22:01:55.360Z,98157.88
2022-08-29T22:04:29.450Z,98156.16
2022-08-29T22:07:02.817Z,98164.66
2022-08-29T22:09:36.726Z,98156.69
2022-08-29T22:12:10.093Z,98159.84
2022-08-29T22:15:01.897Z,98163.91
2022-08-29T22:17:35.686Z,98161.00
2022-08-29T22:20:10.260Z,98162.75
2022-08-29T22:22:43.373Z,98168.09
2022-08-29T22:25:16.786Z,98159.38
2022-08-29T22:27:49.905Z,98168.78
2022-08-29T22:30:32.111Z,98160.06
2022-08-29T22:33:07.013Z,98159.19
2022-08-29T22:35:42.407Z,98165.41
2022-08-29T22:38:15.562Z,98157.47
2022-08-29T22:40:49.303Z,98160.03
2022-08-29T22:43:22.719Z,98165.22
2022-08-29T22:45:57.156Z,98165.09
2022-08-29T22:48:30.236Z,98161.59
2022-08-29T22:51:03.314Z,98162.31
2022-08-29T22:53:36.426Z,98161.34
2022-08-29T22:56:09.887Z,98159.66
2022-08-29T22:58:42.957Z,98153.53
2022-08-29T23:01:17.476Z,98153.34
2022-08-29T23:03:50.714Z,98147.16
2022-08-29T23:06:24.343Z,98148.56
2022-08-29T23:08:58.326Z,98148.25
2022-08-29T23:11:31.441Z,98141.22
2022-08-29T23:14:05.407Z,98148.06
2022-08-29T23:16:41.135Z,98150.66
2022-08-29T23:19:14.463Z,98156.84
2022-08-29T23:21:49.452Z,98150.56
2022-08-29T23:24:26.195Z,98150.22
2022-08-29T23:26:59.675Z,98151.22
2022-08-29T23:29:34.073Z,98150.44
2022-08-29T23:32:16.194Z,98150.97
2022-08-29T23:34:49.304Z,98149.84
2022-08-29T23:37:22.414Z,98150.94
2022-08-29T23:39:55.549Z,98147.22
2022-08-29T23:42:29.322Z,98144.47
2022-08-29T23:45:02.402Z,98153.00
2022-08-29T23:47:36.839Z,98150.31
2022-08-29T23:50:12.865Z,98158.06
2022-08-29T23:52:46.383Z,98152.91
2022-08-29T23:55:20.115Z,98151.00
2022-08-29T23:57:53.252Z,98155.97
